createdAt,value
2018-12-25T00:07:22.039Z,1.37
2018-12-25T00:18:20.867Z,1.25
2018-12-25T00:29:24.193Z,1.11
2018-12-25T00:40:22.025Z,0.98
2018-12-25T00:51:19.716Z,1.16
2018-12-25T01:02:23.077Z,1.29
2018-12-25T01:13:28.512Z,1.61
2018-12-25T01:24:24.899Z,1.04
2018-12-25T01:35:25.675Z,0.86
2018-12-25T01:46:26.365Z,0.79
2018-12-25T01:57:29.622Z,0.64
2018-12-25T02:08:30.021Z,0.71
2018-12-25T02:19:30.950Z,0.62
2018-12-25T02:30:25.393Z,0.46
2018-12-25T02:41:26.283Z,0.35
2018-12-25T02:52:29.868Z,0.24
2018-12-25T03:03:33.083Z,0.07
2018-12-25T03:14:21.729Z,0.07
2018-12-25T03:25:19.038Z,-0.10
2018-12-25T03:36:17.087Z,-0.23
2018-12-25T03:47:12.358Z,-0.43
2018-12-25T03:58:13.912Z,-0.30
2018-12-25T04:09:08.140Z,-0.29
2018-12-25T04:20:07.693Z,-0.33
2018-12-25T04:31:11.184Z,-0.26
2018-12-25T04:42:09.039Z,-0.29
2018-12-25T04:53:12.834Z,-0.32
2018-12-25T05:04:17.656Z,-0.08
2018-12-25T05:15:09.693Z,0.28
2018-12-25T05:26:10.710Z,0.14
2018-12-25T05:37:08.277Z,0.24
2018-12-25T05:48:10.996Z,0.36
2018-12-25T05:59:14.699Z,0.74
2018-12-25T06:10:09.285Z,0.97
2018-12-25T06:21:06.261Z,0.61
2018-12-25T06:31:49.356Z,0.50
2018-12-25T06:42:48.231Z,0.40
2018-12-25T06:53:52.652Z,0.56
2018-12-25T07:04:52.267Z,0.46
2018-12-25T07:15:40.229Z,1.28
2018-12-25T07:26:25.619Z,1.52
2018-12-25T07:37:23.676Z,1.65
2018-12-25T07:48:04.542Z,1.82
2018-12-25T07:59:05.138Z,2.46
2018-12-25T08:10:05.345Z,2.55
2018-12-25T08:21:01.636Z,2.68
2018-12-25T08:32:01.745Z,3.57
2018-12-25T08:42:59.917Z,3.90
2018-12-25T08:54:00.051Z,5.70
2018-12-25T09:05:05.802Z,5.96
2018-12-25T09:16:09.600Z,6.36
2018-12-25T09:26:59.481Z,6.24
2018-12-25T09:37:55.515Z,6.48
2018-12-25T09:48:52.390Z,7.01
2018-12-25T09:59:53.302Z,6.94
2018-12-25T10:10:42.780Z,6.52
2018-12-25T10:21:41.416Z,6.69
2018-12-25T10:32:41.381Z,6.63
2018-12-25T10:43:43.889Z,6.51
2018-12-25T10:54:45.191Z,5.95
2018-12-25T11:05:43.652Z,5.92
2018-12-25T11:16:42.308Z,6.54
2018-12-25T11:27:39.919Z,6.60
2018-12-25T11:38:39.655Z,6.47
2018-12-25T11:49:43.351Z,6.62
2018-12-25T12:00:42.461Z,6.66
2018-12-25T12:11:45.644Z,6.50
2018-12-25T12:22:41.619Z,6.18
2018-12-25T12:33:44.046Z,6.22
2018-12-25T12:44:43.327Z,6.44
2018-12-25T12:55:37.023Z,6.55
2018-12-25T13:06:35.244Z,6.70
2018-12-25T13:17:38.245Z,6.47
2018-12-25T13:28:36.011Z,6.36
2018-12-25T13:39:34.806Z,6.26
2018-12-25T13:50:33.655Z,5.93
2018-12-25T14:01:33.959Z,6.63
2018-12-25T14:12:35.686Z,6.84
2018-12-25T14:23:38.650Z,6.73
2018-12-25T14:34:36.051Z,6.54
2018-12-25T14:45:35.095Z,6.42
2018-12-25T14:56:30.954Z,6.26
2018-12-25T15:07:27.452Z,5.99
2018-12-25T15:18:25.190Z,6.06
2018-12-25T15:29:24.859Z,5.60
2018-12-25T15:40:21.519Z,5.60
2018-12-25T15:51:15.614Z,5.16
2018-12-25T16:02:13.068Z,5.06
2018-12-25T16:13:14.174Z,4.99
2018-12-25T16:24:11.531Z,4.77
2018-12-25T16:34:54.786Z,5.23
2018-12-25T16:45:51.371Z,5.26
2018-12-25T16:56:45.935Z,5.35
2018-12-25T17:07:47.772Z,5.28
2018-12-25T17:18:47.338Z,5.49
2018-12-25T17:29:39.555Z,5.20
2018-12-25T17:40:35.822Z,4.98
2018-12-25T17:51:35.571Z,4.99
2018-12-25T18:02:34.791Z,4.73
2018-12-25T18:13:27.191Z,4.80
2018-12-25T18:24:24.346Z,4.29
2018-12-25T18:35:23.995Z,4.40
2018-12-25T18:46:24.218Z,4.68
2018-12-25T18:57:06.280Z,4.07
2018-12-25T19:08:01.374Z,3.94
2018-12-25T19:18:58.923Z,3.41
2018-12-25T19:29:53.038Z,2.77
2018-12-25T19:40:44.264Z,2.12
2018-12-25T19:51:44.204Z,1.58
2018-12-25T20:02:35.632Z,0.92
2018-12-25T20:13:28.098Z,0.82
2018-12-25T20:24:26.554Z,0.61
2018-12-25T20:35:13.430Z,0.50
2018-12-25T20:46:03.310Z,0.40
2018-12-25T20:56:51.326Z,0.79
2018-12-25T21:07:45.686Z,0.59
2018-12-25T21:18:38.384Z,0.97
2018-12-25T21:29:32.431Z,0.66
2018-12-25T21:40:24.241Z,0.49
2018-12-25T21:51:07.440Z,0.27
2018-12-25T22:01:52.370Z,-0.10
2018-12-25T22:12:53.046Z,-0.10
2018-12-25T22:23:40.985Z,-0.40
2018-12-25T22:34:21.792Z,-0.43
2018-12-25T22:45:18.825Z,-0.59
2018-12-25T22:56:14.526Z,-0.66
2018-12-25T23:07:08.555Z,-0.68
2018-12-25T23:18:10.525Z,-0.72
2018-12-25T23:29:13.247Z,-0.68
2018-12-25T23:40:09.086Z,-0.72
2018-12-25T23:51:11.024Z,-0.48
